createdAt,value
2023-02-19T00:01:44.747Z,8.40
2023-02-19T00:04:16.325Z,8.40
2023-02-19T00:06:43.474Z,8.40
2023-02-19T00:09:11.260Z,8.40
2023-02-19T00:11:37.973Z,8.40
2023-02-19T00:14:05.004Z,8.40
2023-02-19T00:16:33.327Z,8.40
2023-02-19T00:19:00.633Z,8.40
2023-02-19T00:21:27.610Z,8.40
2023-02-19T00:23:56.083Z,8.40
2023-02-19T00:26:22.841Z,8.40
2023-02-19T00:28:50.653Z,8.40
2023-02-19T00:31:22.223Z,8.30
2023-02-19T00:33:50.588Z,8.30
2023-02-19T00:36:17.425Z,8.30
2023-02-19T00:38:44.437Z,8.30
2023-02-19T00:41:21.023Z,8.30
2023-02-19T00:43:58.224Z,8.20
2023-02-19T00:46:25.684Z,8.20
2023-02-19T00:48:52.597Z,8.20
2023-02-19T00:51:19.992Z,8.20
2023-02-19T00:53:46.659Z,8.20
2023-02-19T00:56:13.482Z,8.20
2023-02-19T00:58:40.244Z,8.20
2023-02-19T01:01:09.629Z,8.30
2023-02-19T01:03:38.424Z,8.20
2023-02-19T01:06:06.390Z,8.20
2023-02-19T01:08:33.525Z,8.30
2023-02-19T01:11:01.509Z,8.30
2023-02-19T01:13:30.911Z,8.30
2023-02-19T01:16:24.750Z,8.30
2023-02-19T01:18:51.912Z,8.30
2023-02-19T01:21:23.774Z,8.30
2023-02-19T01:23:50.899Z,8.30
2023-02-19T01:26:19.320Z,8.30
2023-02-19T01:28:46.807Z,8.30
2023-02-19T01:31:15.299Z,8.30
2023-02-19T01:33:50.272Z,8.30
2023-02-19T01:36:17.268Z,8.30
2023-02-19T01:38:44.426Z,8.30
2023-02-19T01:41:13.330Z,8.30
2023-02-19T01:43:59.140Z,8.30
2023-02-19T01:46:30.203Z,8.30
2023-02-19T01:48:59.098Z,8.30
2023-02-19T01:51:25.805Z,8.30
2023-02-19T01:53:55.002Z,8.30
2023-02-19T01:56:21.735Z,8.30
2023-02-19T01:58:48.972Z,8.40
2023-02-19T02:01:15.741Z,8.30
2023-02-19T02:03:42.963Z,8.40
2023-02-19T02:06:23.445Z,8.40
2023-02-19T02:09:14.237Z,8.40
2023-02-19T02:11:43.448Z,8.40
2023-02-19T02:14:10.534Z,8.40
2023-02-19T02:16:43.224Z,8.40
2023-02-19T02:19:40.271Z,8.40
2023-02-19T02:22:12.405Z,8.40
2023-02-19T02:24:57.331Z,8.40
2023-02-19T02:27:46.091Z,8.40
2023-02-19T02:30:31.820Z,8.40
2023-02-19T02:33:04.712Z,8.30
2023-02-19T02:35:35.091Z,8.40
2023-02-19T02:38:09.127Z,8.40
2023-02-19T02:40:35.882Z,8.40
2023-02-19T02:43:02.768Z,8.40
2023-02-19T02:45:36.291Z,8.40
2023-02-19T02:48:23.379Z,8.40
2023-02-19T02:51:16.834Z,8.40
2023-02-19T02:54:33.319Z,8.40
2023-02-19T02:57:03.917Z,8.40
2023-02-19T02:59:36.120Z,8.40
2023-02-19T03:02:20.721Z,8.40
2023-02-19T03:05:18.233Z,8.40
2023-02-19T03:08:10.886Z,8.40
2023-02-19T03:10:52.804Z,8.40
2023-02-19T03:14:00.490Z,8.40
2023-02-19T03:16:47.200Z,8.40
2023-02-19T03:19:21.550Z,8.40
2023-02-19T03:21:51.301Z,8.40
2023-02-19T03:24:37.068Z,8.40
2023-02-19T03:27:04.151Z,8.40
2023-02-19T03:29:38.084Z,8.40
2023-02-19T03:32:13.395Z,8.40
2023-02-19T03:34:55.885Z,8.40
2023-02-19T03:37:28.354Z,8.40
2023-02-19T03:39:58.464Z,8.40
2023-02-19T03:42:57.262Z,8.40
2023-02-19T03:45:57.870Z,8.40
2023-02-19T03:48:53.601Z,8.40
2023-02-19T03:51:24.765Z,8.40
2023-02-19T03:54:13.422Z,8.40
2023-02-19T03:56:52.899Z,8.40
2023-02-19T03:59:52.861Z,8.40
2023-02-19T04:02:35.671Z,8.40
2023-02-19T04:05:09.762Z,8.40
2023-02-19T04:07:39.040Z,8.40
2023-02-19T04:10:06.020Z,8.40
2023-02-19T04:12:34.196Z,8.50
2023-02-19T04:15:10.171Z,8.40
2023-02-19T04:17:39.569Z,8.40
2023-02-19T04:20:08.347Z,8.40
2023-02-19T04:22:36.019Z,8.50
2023-02-19T04:25:02.698Z,8.40
2023-02-19T04:27:29.382Z,8.50
2023-02-19T04:29:56.198Z,8.50
2023-02-19T04:32:22.944Z,8.50
2023-02-19T04:34:49.582Z,8.40
2023-02-19T04:37:16.329Z,8.50
2023-02-19T04:39:43.022Z,8.50
2023-02-19T04:42:10.656Z,8.50
2023-02-19T04:44:37.391Z,8.50
2023-02-19T04:47:04.116Z,8.50
2023-02-19T04:49:30.843Z,8.50
2023-02-19T04:51:57.483Z,8.50
2023-02-19T04:54:24.222Z,8.40
2023-02-19T04:56:50.999Z,8.40
2023-02-19T04:59:17.760Z,8.40
2023-02-19T05:01:45.358Z,8.40
2023-02-19T05:04:12.225Z,8.30
2023-02-19T05:06:39.028Z,8.40
2023-02-19T05:09:06.093Z,8.40
2023-02-19T05:11:33.569Z,8.30
2023-02-19T05:14:00.316Z,8.30
2023-02-19T05:16:27.086Z,8.30
2023-02-19T05:18:53.944Z,8.30
2023-02-19T05:21:23.855Z,8.30
2023-02-19T05:23:50.638Z,8.30
2023-02-19T05:26:20.288Z,8.30
2023-02-19T05:28:48.625Z,8.30
2023-02-19T05:31:15.650Z,8.30
2023-02-19T05:33:42.979Z,8.30
2023-02-19T05:36:11.375Z,8.30
2023-02-19T05:38:38.354Z,8.30
2023-02-19T05:41:16.023Z,8.40
2023-02-19T05:43:43.341Z,8.40
2023-02-19T05:46:10.625Z,8.40
2023-02-19T05:48:37.495Z,8.40
2023-02-19T05:51:09.262Z,8.40
2023-02-19T05:53:36.225Z,8.40
2023-02-19T05:56:03.026Z,8.40
2023-02-19T05:58:29.681Z,8.40
2023-02-19T06:00:56.567Z,8.40
2023-02-19T06:03:23.471Z,8.40
2023-02-19T06:05:50.151Z,8.40
2023-02-19T06:08:16.822Z,8.40
2023-02-19T06:10:43.618Z,8.30
2023-02-19T06:13:10.533Z,8.30
2023-02-19T06:15:37.562Z,8.30
2023-02-19T06:18:04.352Z,8.30
2023-02-19T06:20:31.029Z,8.30
2023-02-19T06:22:57.805Z,8.40
2023-02-19T06:25:24.476Z,8.30
2023-02-19T06:27:51.170Z,8.30
2023-02-19T06:30:18.030Z,8.30
2023-02-19T06:32:44.784Z,8.30
2023-02-19T06:35:11.461Z,8.30
2023-02-19T06:37:38.111Z,8.30
2023-02-19T06:40:05.135Z,8.30
2023-02-19T06:42:33.001Z,8.30
2023-02-19T06:44:59.818Z,8.30
2023-02-19T06:47:26.490Z,8.30
2023-02-19T06:49:53.277Z,8.30
2023-02-19T06:52:19.944Z,8.30
2023-02-19T06:54:46.597Z,8.30
2023-02-19T06:57:13.313Z,8.30
2023-02-19T06:59:39.961Z,8.30
2023-02-19T07:02:06.626Z,8.30
2023-02-19T07:04:33.415Z,8.30
2023-02-19T07:07:00.164Z,8.30
2023-02-19T07:09:28.401Z,8.30
2023-02-19T07:11:55.099Z,8.40
2023-02-19T07:14:21.965Z,8.30
2023-02-19T07:16:48.746Z,8.30
2023-02-19T07:19:15.553Z,8.40
2023-02-19T07:21:42.466Z,8.40
2023-02-19T07:24:09.764Z,8.40
2023-02-19T07:26:36.513Z,8.40
2023-02-19T07:29:03.212Z,8.40
2023-02-19T07:31:30.066Z,8.40
2023-02-19T07:33:56.807Z,8.40
2023-02-19T07:36:23.848Z,8.40
2023-02-19T07:38:57.254Z,8.50
2023-02-19T07:41:24.515Z,8.40
2023-02-19T07:43:51.255Z,8.50
2023-02-19T07:46:19.176Z,8.50
2023-02-19T07:48:45.897Z,8.50
2023-02-19T07:51:14.850Z,8.50
2023-02-19T07:53:41.494Z,8.50
2023-02-19T07:56:08.354Z,8.50
2023-02-19T07:58:35.044Z,8.50
2023-02-19T08:01:18.854Z,8.60
2023-02-19T08:03:45.607Z,8.60
2023-02-19T08:06:12.360Z,8.60
2023-02-19T08:08:39.456Z,8.60
2023-02-19T08:11:24.587Z,8.60
2023-02-19T08:13:51.808Z,8.60
2023-02-19T08:16:29.617Z,8.70
2023-02-19T08:19:00.105Z,8.70
2023-02-19T08:21:26.763Z,8.70
2023-02-19T08:23:53.553Z,8.70
2023-02-19T08:26:20.279Z,8.80
2023-02-19T08:28:47.684Z,8.80
2023-02-19T08:31:14.844Z,8.80
2023-02-19T08:33:41.765Z,8.80
2023-02-19T08:36:09.380Z,8.80
2023-02-19T08:38:36.506Z,8.90
2023-02-19T08:41:11.845Z,8.90
2023-02-19T08:43:39.459Z,8.90
2023-02-19T08:46:07.150Z,8.90
2023-02-19T08:48:34.145Z,8.90
2023-02-19T08:51:03.825Z,8.90
2023-02-19T08:53:31.554Z,9.00
2023-02-19T08:55:58.279Z,8.90
2023-02-19T08:58:27.663Z,9.00
2023-02-19T09:00:54.437Z,9.00
2023-02-19T09:03:21.153Z,9.00
2023-02-19T09:05:47.969Z,9.10
2023-02-19T09:08:15.692Z,9.10
2023-02-19T09:10:42.390Z,9.20
2023-02-19T09:13:09.076Z,9.20
2023-02-19T09:15:37.052Z,9.30
2023-02-19T09:18:03.855Z,9.20
2023-02-19T09:20:30.574Z,9.30
2023-02-19T09:22:58.283Z,9.20
2023-02-19T09:25:25.400Z,9.20
2023-02-19T09:27:55.592Z,9.20
2023-02-19T09:30:22.415Z,9.30
2023-02-19T09:32:49.100Z,9.30
2023-02-19T09:35:15.868Z,9.30
2023-02-19T09:37:42.546Z,9.40
2023-02-19T09:40:09.890Z,9.40
2023-02-19T09:42:37.091Z,9.40
2023-02-19T09:45:13.920Z,9.50
2023-02-19T09:47:43.063Z,9.50
2023-02-19T09:50:14.759Z,9.50
2023-02-19T09:52:57.240Z,9.40
2023-02-19T09:55:40.711Z,9.40
2023-02-19T09:58:29.778Z,9.40
2023-02-19T10:01:01.776Z,9.40
2023-02-19T10:03:39.105Z,9.40
2023-02-19T10:06:14.895Z,9.40
2023-02-19T10:08:41.674Z,9.40
2023-02-19T10:11:08.450Z,9.40
2023-02-19T10:13:39.903Z,9.40
2023-02-19T10:16:07.139Z,9.40
2023-02-19T10:18:41.292Z,9.40
2023-02-19T10:21:10.688Z,9.40
2023-02-19T10:23:37.487Z,9.40
2023-02-19T10:26:04.198Z,9.40
2023-02-19T10:28:33.653Z,9.30
2023-02-19T10:31:01.827Z,9.40
2023-02-19T10:33:28.751Z,9.40
2023-02-19T10:35:56.682Z,9.40
2023-02-19T10:38:34.059Z,9.40
2023-02-19T10:41:06.164Z,9.50
2023-02-19T10:43:37.130Z,9.50
2023-02-19T10:46:17.091Z,9.60
2023-02-19T10:49:01.641Z,9.60
2023-02-19T10:51:33.387Z,9.60
2023-02-19T10:54:20.193Z,9.60
2023-02-19T10:56:47.025Z,9.60
2023-02-19T10:59:27.025Z,9.60
2023-02-19T11:02:04.267Z,9.70
2023-02-19T11:04:35.301Z,9.70
2023-02-19T11:07:14.423Z,9.70
2023-02-19T11:09:43.057Z,9.60
2023-02-19T11:12:09.836Z,9.60
2023-02-19T11:14:36.562Z,9.60
2023-02-19T11:17:05.386Z,9.60
2023-02-19T11:19:36.710Z,9.60
2023-02-19T11:22:22.342Z,9.60
2023-02-19T11:24:50.173Z,9.60
2023-02-19T11:27:19.500Z,9.50
2023-02-19T11:29:46.253Z,9.60
2023-02-19T11:32:29.739Z,9.70
2023-02-19T11:35:20.039Z,9.80
2023-02-19T11:37:59.467Z,9.90
2023-02-19T11:40:53.284Z,10.00
2023-02-19T11:43:31.881Z,10.00
2023-02-19T11:46:17.806Z,10.10
2023-02-19T11:49:17.679Z,10.20
2023-02-19T11:52:03.690Z,10.30
2023-02-19T11:54:33.110Z,10.30
2023-02-19T11:57:23.532Z,10.30
2023-02-19T11:59:59.432Z,10.30
2023-02-19T12:02:44.116Z,10.30
2023-02-19T12:05:26.218Z,10.30
2023-02-19T12:08:28.273Z,10.40
2023-02-19T12:11:16.090Z,10.30
2023-02-19T12:14:21.825Z,10.20
2023-02-19T12:17:09.714Z,10.30
2023-02-19T12:19:58.516Z,10.20
2023-02-19T12:22:32.740Z,10.10
2023-02-19T12:25:16.989Z,10.10
2023-02-19T12:27:59.161Z,10.00
2023-02-19T12:30:46.168Z,10.00
2023-02-19T12:33:18.254Z,9.90
2023-02-19T12:36:05.943Z,9.80
2023-02-19T12:38:40.093Z,9.80
2023-02-19T12:41:37.764Z,9.90
2023-02-19T12:44:15.991Z,9.90
2023-02-19T12:46:52.116Z,9.90
2023-02-19T12:49:25.327Z,10.10
2023-02-19T12:52:15.049Z,10.20
2023-02-19T12:54:43.213Z,10.30
2023-02-19T12:57:15.869Z,10.30
2023-02-19T12:59:56.082Z,10.30
2023-02-19T13:02:24.428Z,10.20
2023-02-19T13:05:29.884Z,10.20
2023-02-19T13:08:04.765Z,10.20
2023-02-19T13:10:46.570Z,10.20
2023-02-19T13:13:19.341Z,10.20
2023-02-19T13:15:48.465Z,10.30
2023-02-19T13:18:20.208Z,10.40
2023-02-19T13:20:47.765Z,10.30
2023-02-19T13:23:47.191Z,10.30
2023-02-19T13:26:41.214Z,10.30
2023-02-19T13:29:45.853Z,10.20
2023-02-19T13:32:24.610Z,10.00
2023-02-19T13:35:34.442Z,9.90
2023-02-19T13:38:01.986Z,9.80
2023-02-19T13:40:33.138Z,9.80
2023-02-19T13:43:01.113Z,9.80
2023-02-19T13:45:37.223Z,9.90
2023-02-19T13:48:29.686Z,9.90
2023-02-19T13:51:34.599Z,9.90
2023-02-19T13:54:01.882Z,9.90
2023-02-19T13:56:33.742Z,9.80
2023-02-19T13:59:12.471Z,9.80
2023-02-19T14:01:51.613Z,9.70
2023-02-19T14:04:51.547Z,9.70
2023-02-19T14:07:18.216Z,9.80
2023-02-19T14:09:45.508Z,9.90
2023-02-19T14:12:16.041Z,9.90
2023-02-19T14:14:53.153Z,9.90
2023-02-19T14:17:27.119Z,10.00
2023-02-19T14:20:08.734Z,9.90
2023-02-19T14:22:48.748Z,9.90
2023-02-19T14:25:28.203Z,10.00
2023-02-19T14:28:11.466Z,10.00
2023-02-19T14:30:58.709Z,9.90
2023-02-19T14:33:33.208Z,10.00
2023-02-19T14:36:20.526Z,10.00
2023-02-19T14:38:57.400Z,10.00
2023-02-19T14:41:24.143Z,10.00
2023-02-19T14:43:51.985Z,10.00
2023-02-19T14:46:31.256Z,9.90
2023-02-19T14:49:02.500Z,10.00
2023-02-19T14:51:44.079Z,9.90
2023-02-19T14:54:15.673Z,9.90
2023-02-19T14:56:43.677Z,9.90
2023-02-19T14:59:13.622Z,9.90
2023-02-19T15:01:41.481Z,9.90
2023-02-19T15:04:25.012Z,9.90
2023-02-19T15:06:53.065Z,9.90
2023-02-19T15:09:19.999Z,9.90
2023-02-19T15:11:46.688Z,9.90
2023-02-19T15:14:19.543Z,9.90
2023-02-19T15:16:46.290Z,9.90
2023-02-19T15:19:13.095Z,9.90
2023-02-19T15:21:45.925Z,9.80
2023-02-19T15:24:13.569Z,9.90
2023-02-19T15:26:41.683Z,9.80
2023-02-19T15:29:13.183Z,9.80
2023-02-19T15:31:50.785Z,9.70
2023-02-19T15:34:22.247Z,9.80
2023-02-19T15:36:55.731Z,9.80
2023-02-19T15:39:28.456Z,9.80
2023-02-19T15:42:00.590Z,9.80
2023-02-19T15:44:35.765Z,9.80
2023-02-19T15:47:10.384Z,9.70
2023-02-19T15:49:50.043Z,9.70
2023-02-19T15:52:23.605Z,9.70
2023-02-19T15:55:15.802Z,9.70
2023-02-19T15:57:44.351Z,9.70
2023-02-19T16:00:11.462Z,9.60
2023-02-19T16:02:40.890Z,9.60
2023-02-19T16:05:24.730Z,9.60
2023-02-19T16:08:08.867Z,9.60
2023-02-19T16:10:35.566Z,9.60
2023-02-19T16:13:03.079Z,9.50
2023-02-19T16:15:31.062Z,9.60
2023-02-19T16:17:58.087Z,9.60
2023-02-19T16:20:26.903Z,9.50
2023-02-19T16:23:03.804Z,9.50
2023-02-19T16:25:38.578Z,9.50
2023-02-19T16:28:25.864Z,9.50
2023-02-19T16:31:00.215Z,9.50
2023-02-19T16:33:43.829Z,9.40
2023-02-19T16:36:23.854Z,9.40
2023-02-19T16:39:12.886Z,9.40
2023-02-19T16:41:39.558Z,9.40
2023-02-19T16:44:21.729Z,9.40
2023-02-19T16:46:52.923Z,9.40
2023-02-19T16:49:19.853Z,9.30
2023-02-19T16:51:55.441Z,9.30
2023-02-19T16:54:22.130Z,9.30
2023-02-19T16:56:48.863Z,9.30
2023-02-19T16:59:15.737Z,9.30
2023-02-19T17:01:42.545Z,9.30
2023-02-19T17:04:11.374Z,9.30
2023-02-19T17:06:38.261Z,9.30
2023-02-19T17:09:08.508Z,9.30
2023-02-19T17:11:35.771Z,9.30
2023-02-19T17:14:03.071Z,9.30
2023-02-19T17:16:40.541Z,9.20
2023-02-19T17:19:15.950Z,9.20
2023-02-19T17:21:43.052Z,9.30
2023-02-19T17:24:09.786Z,9.30
2023-02-19T17:26:36.475Z,9.20
2023-02-19T17:29:04.881Z,9.20
2023-02-19T17:31:31.708Z,9.20
2023-02-19T17:33:58.953Z,9.20
2023-02-19T17:36:32.403Z,9.20
2023-02-19T17:38:59.706Z,9.10
2023-02-19T17:41:26.498Z,9.10
2023-02-19T17:43:53.488Z,9.10
2023-02-19T17:46:24.616Z,9.20
2023-02-19T17:48:51.885Z,9.20
2023-02-19T17:51:20.073Z,9.20
2023-02-19T17:53:46.981Z,9.10
2023-02-19T17:56:31.841Z,9.10
2023-02-19T17:58:59.012Z,9.10
2023-02-19T18:01:25.996Z,9.10
2023-02-19T18:03:52.831Z,9.10
2023-02-19T18:06:20.037Z,9.10
2023-02-19T18:08:50.743Z,9.10
2023-02-19T18:11:17.759Z,9.10
2023-02-19T18:13:44.612Z,9.00
2023-02-19T18:16:11.613Z,9.00
2023-02-19T18:18:38.372Z,9.00
2023-02-19T18:21:08.313Z,9.00
2023-02-19T18:23:35.009Z,9.00
2023-02-19T18:26:01.750Z,9.00
2023-02-19T18:28:28.467Z,9.00
2023-02-19T18:30:55.204Z,9.00
2023-02-19T18:33:22.010Z,9.00
2023-02-19T18:35:50.237Z,9.00
2023-02-19T18:38:16.940Z,9.00
2023-02-19T18:40:43.874Z,9.00
2023-02-19T18:43:10.658Z,8.90
2023-02-19T18:45:37.530Z,8.90
2023-02-19T18:48:04.873Z,8.90
2023-02-19T18:50:31.815Z,8.90
2023-02-19T18:52:58.582Z,8.90
2023-02-19T18:55:25.274Z,8.90
2023-02-19T18:57:52.012Z,8.80
2023-02-19T19:00:21.124Z,8.80
2023-02-19T19:02:51.081Z,8.80
2023-02-19T19:05:21.252Z,8.90
2023-02-19T19:07:48.550Z,8.90
2023-02-19T19:10:18.751Z,8.80
2023-02-19T19:12:45.422Z,8.80
2023-02-19T19:15:12.196Z,8.80
2023-02-19T19:17:39.831Z,8.80
2023-02-19T19:20:07.116Z,8.70
2023-02-19T19:22:33.853Z,8.70
2023-02-19T19:25:00.695Z,8.70
2023-02-19T19:27:27.441Z,8.60
2023-02-19T19:29:54.272Z,8.60
2023-02-19T19:32:21.014Z,8.60
2023-02-19T19:34:47.811Z,8.50
2023-02-19T19:37:14.536Z,8.50
2023-02-19T19:39:43.168Z,8.50
2023-02-19T19:42:09.817Z,8.50
2023-02-19T19:44:36.482Z,8.50
2023-02-19T19:47:03.257Z,8.50
2023-02-19T19:49:30.012Z,8.50
2023-02-19T19:52:00.830Z,8.40
2023-02-19T19:54:29.175Z,8.40
2023-02-19T19:56:58.880Z,8.40
2023-02-19T19:59:25.723Z,8.50
2023-02-19T20:02:01.692Z,8.50
2023-02-19T20:04:28.691Z,8.40
2023-02-19T20:06:55.454Z,8.40
2023-02-19T20:09:25.519Z,8.40
2023-02-19T20:11:53.425Z,8.40
2023-02-19T20:14:21.526Z,8.40
2023-02-19T20:16:48.414Z,8.30
2023-02-19T20:19:15.376Z,8.30
2023-02-19T20:21:49.365Z,8.20
2023-02-19T20:24:17.505Z,8.20
2023-02-19T20:26:48.813Z,8.20
2023-02-19T20:29:17.618Z,8.10
2023-02-19T20:31:50.366Z,8.10
2023-02-19T20:34:18.193Z,8.10
2023-02-19T20:36:45.797Z,8.10
2023-02-19T20:39:12.579Z,8.00
2023-02-19T20:41:39.251Z,8.00
2023-02-19T20:44:06.068Z,7.90
2023-02-19T20:46:32.720Z,7.90
2023-02-19T20:48:59.482Z,7.90
2023-02-19T20:51:26.183Z,7.80
2023-02-19T20:53:52.939Z,7.80
2023-02-19T20:56:19.586Z,7.70
2023-02-19T20:58:46.266Z,7.70
2023-02-19T21:01:12.986Z,7.70
2023-02-19T21:03:39.673Z,7.60
2023-02-19T21:06:06.665Z,7.60
2023-02-19T21:08:33.476Z,7.60
2023-02-19T21:11:00.121Z,7.50
2023-02-19T21:13:30.281Z,7.50
2023-02-19T21:15:57.051Z,7.50
2023-02-19T21:18:23.870Z,7.30
2023-02-19T21:20:50.494Z,7.30
2023-02-19T21:23:17.140Z,7.30
2023-02-19T21:25:43.792Z,7.20
2023-02-19T21:28:10.727Z,7.20
2023-02-19T21:30:37.426Z,7.20
2023-02-19T21:33:04.391Z,7.10
2023-02-19T21:35:31.241Z,7.10
2023-02-19T21:37:58.046Z,7.10
2023-02-19T21:40:25.644Z,7.00
2023-02-19T21:42:52.346Z,6.90
2023-02-19T21:45:19.083Z,6.90
2023-02-19T21:47:45.802Z,6.80
2023-02-19T21:50:12.628Z,6.80
2023-02-19T21:52:39.321Z,6.70
2023-02-19T21:55:06.389Z,6.70
2023-02-19T21:57:33.289Z,6.70
2023-02-19T21:59:59.994Z,6.70
2023-02-19T22:02:26.680Z,6.70
2023-02-19T22:04:53.745Z,6.60
2023-02-19T22:07:21.251Z,6.50
2023-02-19T22:09:49.268Z,6.50
2023-02-19T22:12:16.523Z,6.40
2023-02-19T22:14:43.233Z,6.40
2023-02-19T22:17:09.997Z,6.30
2023-02-19T22:19:36.804Z,6.40
2023-02-19T22:22:03.634Z,6.40
2023-02-19T22:24:30.488Z,6.40
2023-02-19T22:26:57.585Z,6.40
2023-02-19T22:29:24.528Z,6.40
2023-02-19T22:31:51.460Z,6.40
2023-02-19T22:34:18.202Z,6.30
2023-02-19T22:36:45.108Z,6.30
2023-02-19T22:39:25.652Z,6.20
2023-02-19T22:41:52.649Z,6.10
2023-02-19T22:44:19.356Z,6.00
2023-02-19T22:46:53.404Z,6.00
2023-02-19T22:49:20.242Z,5.90
2023-02-19T22:51:54.940Z,5.90
2023-02-19T22:54:24.854Z,6.00
2023-02-19T22:56:51.607Z,6.00
2023-02-19T22:59:18.289Z,6.10
2023-02-19T23:01:45.016Z,6.10
2023-02-19T23:04:11.746Z,6.00
2023-02-19T23:06:41.272Z,5.90
2023-02-19T23:09:11.002Z,6.00
2023-02-19T23:11:39.021Z,6.00
2023-02-19T23:14:06.171Z,6.00
2023-02-19T23:16:35.696Z,6.00
2023-02-19T23:19:03.569Z,5.90
2023-02-19T23:21:30.361Z,5.90
2023-02-19T23:23:57.049Z,5.80
2023-02-19T23:26:23.876Z,5.90
2023-02-19T23:28:50.623Z,5.90
2023-02-19T23:31:17.627Z,6.00
2023-02-19T23:33:45.070Z,5.90
2023-02-19T23:36:12.243Z,5.90
2023-02-19T23:38:39.177Z,5.80
2023-02-19T23:41:10.741Z,5.80
2023-02-19T23:43:37.706Z,5.80
2023-02-19T23:46:04.713Z,5.70
2023-02-19T23:48:31.443Z,5.70
2023-02-19T23:50:58.141Z,5.70
2023-02-19T23:53:24.811Z,5.60
2023-02-19T23:55:51.703Z,5.50
2023-02-19T23:58:18.769Z,5.30
